createdAt,value
2023-04-17T00:02:05.317Z,9.10
2023-04-17T00:04:32.783Z,9.13
2023-04-17T00:07:01.529Z,9.14
2023-04-17T00:09:28.835Z,9.07
2023-04-17T00:11:56.483Z,9.08
2023-04-17T00:14:24.353Z,8.98
2023-04-17T00:16:51.726Z,8.98
2023-04-17T00:19:19.091Z,9.05
2023-04-17T00:21:46.417Z,8.99
2023-04-17T00:24:15.431Z,8.97
2023-04-17T00:26:42.659Z,9.03
2023-04-17T00:29:10.252Z,8.98
2023-04-17T00:31:37.786Z,9.01
2023-04-17T00:34:05.211Z,8.97
2023-04-17T00:36:32.650Z,9.01
2023-04-17T00:39:00.057Z,8.98
2023-04-17T00:41:28.707Z,8.96
2023-04-17T00:43:56.101Z,9.02
2023-04-17T00:46:24.334Z,8.97
2023-04-17T00:48:51.906Z,8.94
2023-04-17T00:51:19.510Z,9.06
2023-04-17T00:53:47.773Z,9.01
2023-04-17T00:56:15.076Z,9.03
2023-04-17T00:58:43.914Z,9.03
2023-04-17T01:01:11.563Z,8.96
2023-04-17T01:03:39.099Z,9.05
2023-04-17T01:06:06.842Z,9.02
2023-04-17T01:08:42.241Z,8.94
2023-04-17T01:11:09.805Z,8.90
2023-04-17T01:13:45.771Z,8.88
2023-04-17T01:16:13.575Z,8.95
2023-04-17T01:18:40.933Z,8.94
2023-04-17T01:21:08.217Z,8.87
2023-04-17T01:23:44.280Z,8.88
2023-04-17T01:26:16.909Z,8.96
2023-04-17T01:28:44.665Z,8.93
2023-04-17T01:31:15.291Z,8.85
2023-04-17T01:33:42.662Z,8.81
2023-04-17T01:36:09.898Z,8.87
2023-04-17T01:38:37.612Z,8.80
2023-04-17T01:41:05.119Z,8.76
2023-04-17T01:43:33.683Z,8.77
2023-04-17T01:46:01.052Z,8.78
2023-04-17T01:48:28.354Z,8.84
2023-04-17T01:50:55.513Z,8.77
2023-04-17T01:53:22.806Z,8.75
2023-04-17T01:55:50.037Z,8.76
2023-04-17T01:58:17.246Z,8.75
2023-04-17T02:00:47.041Z,8.75
2023-04-17T02:03:14.405Z,8.73
2023-04-17T02:05:41.844Z,8.76
2023-04-17T02:08:09.139Z,8.73
2023-04-17T02:10:36.381Z,8.68
2023-04-17T02:13:03.623Z,8.69
2023-04-17T02:15:31.231Z,8.66
2023-04-17T02:17:59.863Z,8.66
2023-04-17T02:20:27.079Z,8.68
2023-04-17T02:22:54.646Z,8.66
2023-04-17T02:25:21.900Z,8.67
2023-04-17T02:27:49.175Z,8.63
2023-04-17T02:30:16.386Z,8.65
2023-04-17T02:32:43.761Z,8.63
2023-04-17T02:35:13.473Z,8.61
2023-04-17T02:37:40.705Z,8.64
2023-04-17T02:40:08.966Z,8.61
2023-04-17T02:42:37.680Z,8.58
2023-04-17T02:45:06.040Z,8.56
2023-04-17T02:47:33.354Z,8.55
2023-04-17T02:50:01.117Z,8.50
2023-04-17T02:52:30.792Z,8.53
2023-04-17T02:54:58.652Z,8.50
2023-04-17T02:57:27.272Z,8.45
2023-04-17T02:59:57.478Z,8.41
2023-04-17T03:02:24.888Z,8.45
2023-04-17T03:04:52.281Z,8.43
2023-04-17T03:07:20.701Z,8.34
2023-04-17T03:09:49.948Z,8.33
2023-04-17T03:12:17.383Z,8.35
2023-04-17T03:14:44.579Z,8.30
2023-04-17T03:17:14.090Z,8.34
2023-04-17T03:19:41.809Z,8.29
2023-04-17T03:22:10.829Z,8.25
2023-04-17T03:24:39.880Z,8.24
2023-04-17T03:27:08.816Z,8.28
2023-04-17T03:29:39.834Z,8.27
2023-04-17T03:32:07.140Z,8.23
2023-04-17T03:34:34.580Z,8.22
2023-04-17T03:37:01.955Z,8.29
2023-04-17T03:39:31.499Z,8.28
2023-04-17T03:41:58.857Z,8.25
2023-04-17T03:44:27.538Z,8.23
2023-04-17T03:46:54.790Z,8.18
2023-04-17T03:49:22.589Z,8.20
2023-04-17T03:51:50.392Z,8.18
2023-04-17T03:54:20.851Z,8.19
2023-04-17T03:56:50.215Z,8.17
2023-04-17T03:59:18.509Z,8.19
2023-04-17T04:01:47.769Z,8.20
2023-04-17T04:04:19.740Z,8.16
2023-04-17T04:06:48.852Z,8.14
2023-04-17T04:09:19.399Z,8.15
2023-04-17T04:11:46.884Z,8.14
2023-04-17T04:14:14.188Z,8.12
2023-04-17T04:16:41.663Z,8.14
2023-04-17T04:19:13.277Z,8.11
2023-04-17T04:21:40.919Z,8.15
2023-04-17T04:24:09.913Z,8.08
2023-04-17T04:26:37.540Z,8.13
2023-04-17T04:29:04.747Z,8.13
2023-04-17T04:31:49.071Z,8.09
2023-04-17T04:34:18.296Z,8.15
2023-04-17T04:36:45.527Z,8.16
2023-04-17T04:39:20.602Z,8.18
2023-04-17T04:41:49.505Z,8.16
2023-04-17T04:44:18.206Z,8.14
2023-04-17T04:46:46.359Z,8.17
2023-04-17T04:49:13.883Z,8.17
2023-04-17T04:51:42.739Z,8.19
2023-04-17T04:54:10.759Z,8.15
2023-04-17T04:56:46.522Z,8.20
2023-04-17T04:59:16.012Z,8.22
2023-04-17T05:01:49.547Z,8.25
2023-04-17T05:04:19.891Z,8.22
2023-04-17T05:06:50.877Z,8.39
2023-04-17T05:09:18.535Z,8.23
2023-04-17T05:11:47.431Z,8.36
2023-04-17T05:14:14.836Z,8.32
2023-04-17T05:16:42.525Z,8.30
2023-04-17T05:19:10.582Z,8.30
2023-04-17T05:21:51.989Z,8.34
2023-04-17T05:24:21.215Z,8.45
2023-04-17T05:26:49.801Z,8.38
2023-04-17T05:29:17.178Z,8.44
2023-04-17T05:31:44.468Z,8.56
2023-04-17T05:34:25.010Z,8.52
2023-04-17T05:36:53.743Z,8.58
2023-04-17T05:39:20.991Z,8.66
2023-04-17T05:41:48.320Z,8.63
2023-04-17T05:44:15.672Z,8.82
2023-04-17T05:46:42.965Z,8.90
2023-04-17T05:49:12.143Z,9.02
2023-04-17T05:51:39.651Z,8.94
2023-04-17T05:54:08.331Z,9.08
2023-04-17T05:56:35.867Z,8.94
2023-04-17T05:59:03.101Z,9.10
2023-04-17T06:01:30.875Z,9.09
2023-04-17T06:03:58.418Z,9.19
2023-04-17T06:06:27.804Z,9.32
2023-04-17T06:08:54.968Z,9.13
2023-04-17T06:11:24.626Z,9.22
2023-04-17T06:13:52.753Z,9.11
2023-04-17T06:16:21.055Z,9.20
2023-04-17T06:18:49.264Z,9.21
2023-04-17T06:21:16.661Z,9.17
2023-04-17T06:23:43.925Z,9.49
2023-04-17T06:26:11.183Z,9.63
2023-04-17T06:28:41.442Z,9.70
2023-04-17T06:31:09.378Z,9.91
2023-04-17T06:33:36.667Z,9.86
2023-04-17T06:36:04.414Z,9.71
2023-04-17T06:38:48.222Z,9.76
2023-04-17T06:41:17.576Z,9.73
2023-04-17T06:43:46.247Z,9.87
2023-04-17T06:46:15.065Z,10.15
2023-04-17T06:48:42.428Z,10.07
2023-04-17T06:51:09.831Z,10.07
2023-04-17T06:53:37.117Z,10.22
2023-04-17T06:56:05.102Z,10.33
2023-04-17T06:58:32.310Z,10.30
2023-04-17T07:01:00.885Z,10.71
2023-04-17T07:03:28.337Z,10.67
2023-04-17T07:05:55.715Z,10.49
2023-04-17T07:08:22.886Z,10.78
2023-04-17T07:10:50.341Z,10.91
2023-04-17T07:13:17.520Z,10.91
2023-04-17T07:15:44.835Z,11.15
2023-04-17T07:18:13.621Z,11.42
2023-04-17T07:20:41.072Z,11.22
2023-04-17T07:23:10.272Z,11.21
2023-04-17T07:25:37.544Z,11.37
2023-04-17T07:28:05.079Z,11.62
2023-04-17T07:30:32.424Z,11.57
2023-04-17T07:33:00.595Z,11.57
2023-04-17T07:35:29.291Z,11.72
2023-04-17T07:37:56.495Z,11.63
2023-04-17T07:40:24.206Z,11.91
2023-04-17T07:42:51.446Z,11.87
2023-04-17T07:45:18.767Z,12.09
2023-04-17T07:47:46.323Z,11.99
2023-04-17T07:50:14.101Z,12.49
2023-04-17T07:52:42.772Z,12.34
2023-04-17T07:55:10.086Z,12.29
2023-04-17T07:57:37.281Z,12.54
2023-04-17T08:00:05.528Z,12.56
2023-04-17T08:02:40.405Z,13.04
2023-04-17T08:05:08.782Z,12.59
2023-04-17T08:07:36.469Z,13.12
2023-04-17T08:10:06.027Z,12.92
2023-04-17T08:12:33.262Z,13.03
2023-04-17T08:15:00.499Z,12.58
2023-04-17T08:17:27.796Z,12.69
2023-04-17T08:19:55.224Z,12.81
2023-04-17T08:22:22.421Z,12.64
2023-04-17T08:24:49.880Z,12.94
2023-04-17T08:27:18.492Z,12.63
2023-04-17T08:29:45.689Z,12.75
2023-04-17T08:32:14.850Z,12.52
2023-04-17T08:34:44.522Z,12.69
2023-04-17T08:37:11.836Z,12.69
2023-04-17T08:39:39.114Z,12.84
2023-04-17T08:42:10.030Z,13.06
2023-04-17T08:44:40.862Z,13.24
2023-04-17T08:47:08.093Z,13.29
2023-04-17T08:49:36.144Z,13.15
2023-04-17T08:52:08.938Z,13.35
2023-04-17T08:54:36.200Z,13.55
2023-04-17T08:57:04.014Z,13.54
2023-04-17T08:59:31.880Z,13.36
2023-04-17T09:02:07.489Z,13.43
2023-04-17T09:04:43.852Z,13.75
2023-04-17T09:07:12.737Z,13.78
2023-04-17T09:09:47.554Z,13.87
2023-04-17T09:12:15.152Z,13.95
2023-04-17T09:14:42.566Z,13.83
2023-04-17T09:17:11.344Z,13.88
2023-04-17T09:19:38.760Z,14.18
2023-04-17T09:22:19.203Z,14.25
2023-04-17T09:24:46.523Z,14.60
2023-04-17T09:27:20.430Z,14.53
2023-04-17T09:29:59.136Z,14.50
2023-04-17T09:32:28.673Z,14.52
2023-04-17T09:34:58.123Z,14.59
2023-04-17T09:37:25.875Z,14.93
2023-04-17T09:39:58.709Z,14.82
2023-04-17T09:42:26.295Z,14.65
2023-04-17T09:44:53.754Z,15.07
2023-04-17T09:47:21.700Z,15.01
2023-04-17T09:49:51.730Z,16.85
2023-04-17T09:52:20.665Z,17.17
2023-04-17T09:54:48.748Z,18.25
2023-04-17T09:57:17.055Z,18.18
2023-04-17T09:59:45.526Z,19.22
2023-04-17T10:02:14.029Z,18.71
2023-04-17T10:04:41.979Z,19.29
2023-04-17T10:07:11.496Z,20.24
2023-04-17T10:09:40.181Z,19.63
2023-04-17T10:12:11.910Z,19.03
2023-04-17T10:14:40.912Z,19.30
2023-04-17T10:17:24.269Z,18.78
2023-04-17T10:19:52.145Z,19.53
2023-04-17T10:22:30.872Z,18.26
2023-04-17T10:25:17.199Z,19.19
2023-04-17T10:27:49.472Z,18.13
2023-04-17T10:30:17.016Z,18.83
2023-04-17T10:32:46.242Z,19.60
2023-04-17T10:35:35.369Z,19.70
2023-04-17T10:38:06.166Z,19.32
2023-04-17T10:40:35.251Z,19.25
2023-04-17T10:43:04.566Z,19.69
2023-04-17T10:46:04.424Z,19.14
2023-04-17T10:48:33.829Z,18.52
2023-04-17T10:51:02.066Z,18.79
2023-04-17T10:53:42.347Z,18.70
2023-04-17T10:56:11.004Z,18.78
2023-04-17T10:58:56.794Z,19.81
2023-04-17T11:01:26.788Z,19.78
2023-04-17T11:03:54.978Z,20.51
2023-04-17T11:06:22.489Z,20.62
2023-04-17T11:08:51.914Z,20.32
2023-04-17T11:11:26.942Z,19.46
2023-04-17T11:14:07.248Z,22.12
2023-04-17T11:16:34.721Z,21.67
2023-04-17T11:19:02.059Z,22.09
2023-04-17T11:21:29.782Z,21.65
2023-04-17T11:24:02.025Z,21.36
2023-04-17T11:26:29.227Z,20.50
2023-04-17T11:28:56.427Z,20.85
2023-04-17T11:31:23.823Z,21.49
2023-04-17T11:33:51.494Z,22.76
2023-04-17T11:36:18.816Z,22.96
2023-04-17T11:38:49.125Z,21.89
2023-04-17T11:41:17.707Z,21.66
2023-04-17T11:43:44.979Z,22.35
2023-04-17T11:46:12.319Z,22.10
2023-04-17T11:48:40.214Z,21.67
2023-04-17T11:51:07.575Z,20.32
2023-04-17T11:53:35.215Z,20.78
2023-04-17T11:56:13.554Z,21.64
2023-04-17T11:58:52.701Z,22.61
2023-04-17T12:01:21.251Z,23.70
2023-04-17T12:03:48.656Z,22.76
2023-04-17T12:06:16.490Z,21.69
2023-04-17T12:08:48.451Z,21.01
2023-04-17T12:11:28.720Z,21.29
2023-04-17T12:13:57.853Z,22.82
2023-04-17T12:16:26.436Z,22.54
2023-04-17T12:18:54.020Z,22.98
2023-04-17T12:21:21.985Z,23.57
2023-04-17T12:23:49.632Z,22.34
2023-04-17T12:26:16.868Z,21.58
2023-04-17T12:28:44.205Z,21.50
2023-04-17T12:31:13.103Z,19.58
2023-04-17T12:33:40.395Z,19.98
2023-04-17T12:36:08.411Z,19.61
2023-04-17T12:38:35.834Z,19.39
2023-04-17T12:41:03.295Z,21.74
2023-04-17T12:43:31.592Z,22.90
2023-04-17T12:45:58.842Z,21.83
2023-04-17T12:48:27.472Z,20.58
2023-04-17T12:50:54.714Z,21.42
2023-04-17T12:53:21.999Z,20.95
2023-04-17T12:55:49.264Z,21.80
2023-04-17T12:58:16.662Z,19.89
2023-04-17T13:00:44.083Z,18.77
2023-04-17T13:03:12.168Z,19.95
2023-04-17T13:05:41.306Z,22.39
2023-04-17T13:08:08.622Z,22.82
2023-04-17T13:10:35.758Z,23.11
2023-04-17T13:13:03.077Z,20.54
2023-04-17T13:15:31.318Z,19.66
2023-04-17T13:17:58.713Z,21.92
2023-04-17T13:20:26.224Z,22.28
2023-04-17T13:22:55.104Z,22.52
2023-04-17T13:25:23.119Z,23.61
2023-04-17T13:27:50.328Z,22.75
2023-04-17T13:30:17.909Z,22.62
2023-04-17T13:32:45.322Z,22.63
2023-04-17T13:35:12.526Z,22.47
2023-04-17T13:37:40.166Z,22.57
2023-04-17T13:40:09.894Z,23.25
2023-04-17T13:42:37.684Z,22.35
2023-04-17T13:45:05.929Z,22.17
2023-04-17T13:47:33.281Z,22.60
2023-04-17T13:50:00.501Z,23.61
2023-04-17T13:52:27.822Z,23.50
2023-04-17T13:54:54.983Z,24.22
2023-04-17T13:57:23.708Z,23.86
2023-04-17T13:59:50.976Z,23.34
2023-04-17T14:02:18.751Z,22.75
2023-04-17T14:04:46.179Z,23.34
2023-04-17T14:07:13.531Z,24.41
2023-04-17T14:09:40.732Z,22.58
2023-04-17T14:12:08.131Z,22.57
2023-04-17T14:14:36.770Z,22.68
2023-04-17T14:17:04.048Z,23.75
2023-04-17T14:19:31.554Z,23.25
2023-04-17T14:21:58.784Z,23.10
2023-04-17T14:24:25.977Z,24.41
2023-04-17T14:26:53.258Z,24.29
2023-04-17T14:29:20.446Z,23.75
2023-04-17T14:31:49.346Z,23.43
2023-04-17T14:34:16.727Z,22.32
2023-04-17T14:36:44.035Z,21.87
2023-04-17T14:39:11.616Z,22.75
2023-04-17T14:41:39.192Z,22.66
2023-04-17T14:44:06.447Z,23.18
2023-04-17T14:46:33.808Z,23.54
2023-04-17T14:49:02.699Z,24.44
2023-04-17T14:51:30.567Z,22.55
2023-04-17T14:53:58.049Z,21.69
2023-04-17T14:56:25.282Z,20.73
2023-04-17T14:58:52.542Z,20.38
2023-04-17T15:01:19.879Z,21.79
2023-04-17T15:03:48.539Z,23.30
2023-04-17T15:06:18.109Z,23.70
2023-04-17T15:08:45.643Z,22.95
2023-04-17T15:11:12.996Z,23.79
2023-04-17T15:13:40.283Z,24.62
2023-04-17T15:16:09.239Z,22.96
2023-04-17T15:18:36.525Z,21.66
2023-04-17T15:21:04.069Z,21.54
2023-04-17T15:23:32.668Z,22.38
2023-04-17T15:26:00.546Z,22.77
2023-04-17T15:28:28.080Z,22.75
2023-04-17T15:30:56.664Z,22.15
2023-04-17T15:33:23.948Z,23.39
2023-04-17T15:35:53.837Z,22.18
2023-04-17T15:38:21.112Z,20.85
2023-04-17T15:40:49.996Z,20.76
2023-04-17T15:43:17.902Z,20.91
2023-04-17T15:45:45.159Z,20.77
2023-04-17T15:48:12.391Z,21.12
2023-04-17T15:50:40.627Z,20.95
2023-04-17T15:53:09.042Z,20.98
2023-04-17T15:55:36.469Z,21.61
2023-04-17T15:58:05.210Z,20.83
2023-04-17T16:00:32.620Z,21.64
2023-04-17T16:02:59.974Z,21.31
2023-04-17T16:05:27.392Z,21.62
2023-04-17T16:07:54.558Z,22.07
2023-04-17T16:10:22.024Z,22.16
2023-04-17T16:12:49.477Z,22.16
2023-04-17T16:15:18.192Z,21.36
2023-04-17T16:17:45.927Z,21.33
2023-04-17T16:20:13.772Z,20.77
2023-04-17T16:22:40.959Z,19.96
2023-04-17T16:25:09.768Z,19.62
2023-04-17T16:27:37.063Z,20.10
2023-04-17T16:30:05.382Z,20.31
2023-04-17T16:32:34.119Z,19.99
2023-04-17T16:35:01.414Z,20.07
2023-04-17T16:37:28.745Z,20.33
2023-04-17T16:39:56.165Z,20.25
2023-04-17T16:42:23.535Z,19.81
2023-04-17T16:44:50.818Z,20.45
2023-04-17T16:47:18.124Z,20.48
2023-04-17T16:49:47.212Z,19.56
2023-04-17T16:52:14.482Z,20.20
2023-04-17T16:54:41.848Z,20.11
2023-04-17T16:57:09.330Z,19.02
2023-04-17T16:59:36.702Z,18.84
2023-04-17T17:02:04.128Z,19.52
2023-04-17T17:04:31.466Z,19.28
2023-04-17T17:06:59.999Z,18.21
2023-04-17T17:09:27.389Z,17.32
2023-04-17T17:11:54.725Z,17.51
2023-04-17T17:14:22.068Z,17.81
2023-04-17T17:16:49.434Z,17.62
2023-04-17T17:19:16.808Z,17.18
2023-04-17T17:21:44.245Z,17.08
2023-04-17T17:24:12.882Z,17.35
2023-04-17T17:26:40.272Z,16.86
2023-04-17T17:29:07.897Z,17.08
2023-04-17T17:31:35.253Z,17.28
2023-04-17T17:34:16.762Z,16.17
2023-04-17T17:36:49.718Z,16.36
2023-04-17T17:39:18.452Z,15.65
2023-04-17T17:41:47.364Z,15.18
2023-04-17T17:44:15.126Z,14.97
2023-04-17T17:46:42.640Z,14.93
2023-04-17T17:49:09.951Z,14.87
2023-04-17T17:51:37.356Z,14.70
2023-04-17T17:54:04.601Z,14.32
2023-04-17T17:56:33.330Z,14.27
2023-04-17T17:59:00.528Z,14.03
2023-04-17T18:01:27.907Z,13.93
2023-04-17T18:03:55.390Z,13.65
2023-04-17T18:06:22.998Z,13.16
2023-04-17T18:08:50.395Z,12.77
2023-04-17T18:11:17.727Z,12.61
2023-04-17T18:13:46.360Z,12.34
2023-04-17T18:16:13.694Z,12.23
2023-04-17T18:18:41.032Z,12.15
2023-04-17T18:21:09.070Z,11.88
2023-04-17T18:23:36.321Z,11.68
2023-04-17T18:26:04.231Z,11.61
2023-04-17T18:28:32.824Z,11.72
2023-04-17T18:31:01.506Z,11.74
2023-04-17T18:33:28.841Z,11.77
2023-04-17T18:35:56.269Z,11.70
2023-04-17T18:38:23.459Z,11.65
2023-04-17T18:40:53.816Z,11.81
2023-04-17T18:43:21.097Z,11.52
2023-04-17T18:45:48.678Z,11.30
2023-04-17T18:48:17.462Z,11.26
2023-04-17T18:50:44.971Z,11.21
2023-04-17T18:53:12.249Z,11.12
2023-04-17T18:55:39.858Z,11.06
2023-04-17T18:58:07.285Z,10.94
2023-04-17T19:00:34.646Z,10.92
2023-04-17T19:03:01.984Z,10.83
2023-04-17T19:05:30.836Z,10.84
2023-04-17T19:07:59.012Z,10.83
2023-04-17T19:10:26.510Z,10.90
2023-04-17T19:12:53.826Z,10.81
2023-04-17T19:15:21.204Z,10.75
2023-04-17T19:17:48.565Z,10.65
2023-04-17T19:20:16.737Z,10.59
2023-04-17T19:22:45.367Z,10.45
2023-04-17T19:25:12.640Z,10.55
2023-04-17T19:27:40.004Z,10.52
2023-04-17T19:30:08.697Z,10.46
2023-04-17T19:32:36.113Z,10.31
2023-04-17T19:35:03.716Z,10.37
2023-04-17T19:37:30.937Z,10.32
2023-04-17T19:39:59.573Z,10.21
2023-04-17T19:42:26.830Z,10.14
2023-04-17T19:44:54.510Z,9.95
2023-04-17T19:47:21.911Z,10.05
2023-04-17T19:49:49.233Z,9.90
2023-04-17T19:52:16.527Z,9.93
2023-04-17T19:54:44.144Z,10.02
2023-04-17T19:57:12.804Z,9.90
2023-04-17T19:59:40.372Z,9.93
2023-04-17T20:02:07.752Z,9.87
2023-04-17T20:04:35.187Z,9.70
2023-04-17T20:07:02.431Z,9.77
2023-04-17T20:09:30.163Z,9.83
2023-04-17T20:11:57.503Z,9.71
2023-04-17T20:14:26.220Z,9.70
2023-04-17T20:16:53.484Z,9.48
2023-04-17T20:19:20.826Z,9.48
2023-04-17T20:21:48.001Z,9.35
2023-04-17T20:24:15.380Z,9.45
2023-04-17T20:26:42.949Z,9.28
2023-04-17T20:29:10.668Z,9.27
2023-04-17T20:31:39.533Z,9.35
2023-04-17T20:34:07.043Z,9.10
2023-04-17T20:36:34.352Z,9.08
2023-04-17T20:39:01.556Z,9.18
2023-04-17T20:41:28.847Z,8.82
2023-04-17T20:43:57.016Z,8.84
2023-04-17T20:46:29.705Z,8.81
2023-04-17T20:48:58.701Z,8.76
2023-04-17T20:51:26.306Z,8.65
2023-04-17T20:53:54.238Z,8.66
2023-04-17T20:56:21.497Z,8.65
2023-04-17T20:58:49.505Z,8.63
2023-04-17T21:01:16.976Z,8.65
2023-04-17T21:03:44.459Z,8.58
2023-04-17T21:06:13.112Z,8.48
2023-04-17T21:08:40.437Z,8.60
2023-04-17T21:11:07.924Z,8.36
2023-04-17T21:13:35.296Z,8.37
2023-04-17T21:16:02.696Z,8.35
2023-04-17T21:18:30.163Z,8.23
2023-04-17T21:20:57.384Z,8.29
2023-04-17T21:23:26.390Z,8.33
2023-04-17T21:25:53.733Z,8.30
2023-04-17T21:28:21.211Z,8.32
2023-04-17T21:30:48.639Z,8.36
2023-04-17T21:33:15.896Z,8.41
2023-04-17T21:35:43.268Z,8.46
2023-04-17T21:38:11.055Z,8.38
2023-04-17T21:40:50.640Z,8.38
2023-04-17T21:43:18.946Z,8.35
2023-04-17T21:45:46.213Z,8.47
2023-04-17T21:48:14.437Z,8.35
2023-04-17T21:50:41.944Z,8.52
2023-04-17T21:53:09.547Z,8.51
2023-04-17T21:55:38.853Z,8.49
2023-04-17T21:58:06.898Z,8.43
2023-04-17T22:00:34.241Z,8.53
2023-04-17T22:03:01.618Z,8.50
2023-04-17T22:05:28.898Z,8.53
2023-04-17T22:07:56.121Z,8.43
2023-04-17T22:10:24.198Z,8.39
2023-04-17T22:12:52.975Z,8.59
2023-04-17T22:15:20.362Z,8.45
2023-04-17T22:17:47.719Z,8.41
2023-04-17T22:20:15.178Z,8.36
2023-04-17T22:22:42.465Z,8.38
2023-04-17T22:25:09.940Z,8.36
2023-04-17T22:27:37.370Z,8.45
2023-04-17T22:30:07.048Z,8.61
2023-04-17T22:32:34.673Z,8.49
2023-04-17T22:35:02.012Z,8.44
2023-04-17T22:37:29.424Z,8.50
2023-04-17T22:39:56.622Z,8.43
2023-04-17T22:42:23.884Z,8.45
2023-04-17T22:44:51.145Z,8.50
2023-04-17T22:47:21.433Z,8.53
2023-04-17T22:49:48.714Z,8.53
2023-04-17T22:52:16.003Z,8.52
2023-04-17T22:54:43.320Z,8.39
2023-04-17T22:57:10.925Z,8.39
2023-04-17T22:59:38.231Z,8.30
2023-04-17T23:02:05.749Z,8.22
2023-04-17T23:04:34.463Z,8.27
2023-04-17T23:07:01.767Z,8.19
2023-04-17T23:09:28.997Z,8.22
2023-04-17T23:11:56.495Z,8.06
2023-04-17T23:14:23.676Z,8.07
2023-04-17T23:16:50.900Z,7.95
2023-04-17T23:19:18.184Z,8.07
2023-04-17T23:21:46.886Z,8.07
2023-04-17T23:24:14.482Z,8.11
2023-04-17T23:26:42.014Z,8.21
2023-04-17T23:29:09.356Z,8.27
2023-04-17T23:31:37.004Z,8.26
2023-04-17T23:34:04.248Z,8.26
2023-04-17T23:36:31.532Z,8.30
2023-04-17T23:39:00.173Z,8.35
2023-04-17T23:41:27.531Z,8.32
2023-04-17T23:43:54.765Z,8.28
2023-04-17T23:46:22.052Z,8.34
2023-04-17T23:48:49.385Z,8.26
2023-04-17T23:51:16.650Z,8.26
2023-04-17T23:53:43.910Z,8.24
2023-04-17T23:56:12.636Z,8.20
2023-04-17T23:58:39.918Z,8.22
